sensor_id;sensor_type;location;lat;lon;timestamp;pressure;altitude;pressure_sealevel;temperature;humidity
10992;BME280;5549;47.028;15.514;2023-04-06T00:01:28;96832.16;;;3.08;40.40
10992;BME280;5549;47.028;15.514;2023-04-06T00:03:56;96829.78;;;3.03;40.85
10992;BME280;5549;47.028;15.514;2023-04-06T00:06:26;96823.28;;;3.12;40.48
10992;BME280;5549;47.028;15.514;2023-04-06T00:08:56;96825.50;;;3.19;40.53
10992;BME280;5549;47.028;15.514;2023-04-06T00:11:24;96820.31;;;3.19;40.24
10992;BME280;5549;47.028;15.514;2023-04-06T00:13:52;96814.13;;;3.22;40.13
10992;BME280;5549;47.028;15.514;2023-04-06T00:16:21;96810.47;;;3.26;40.13
10992;BME280;5549;47.028;15.514;2023-04-06T00:18:49;96807.84;;;3.26;39.66
10992;BME280;5549;47.028;15.514;2023-04-06T00:21:17;96808.09;;;3.21;40.16
10992;BME280;5549;47.028;15.514;2023-04-06T00:23:44;96812.91;;;3.12;40.62
10992;BME280;5549;47.028;15.514;2023-04-06T00:26:12;96799.03;;;3.13;40.29
10992;BME280;5549;47.028;15.514;2023-04-06T00:28:40;96803.13;;;3.17;40.16
10992;BME280;5549;47.028;15.514;2023-04-06T00:31:08;96799.63;;;3.18;40.32
10992;BME280;5549;47.028;15.514;2023-04-06T00:33:39;96799.56;;;3.19;40.04
10992;BME280;5549;47.028;15.514;2023-04-06T00:36:07;96794.19;;;3.22;39.72
10992;BME280;5549;47.028;15.514;2023-04-06T00:38:35;96793.44;;;3.20;40.09
10992;BME280;5549;47.028;15.514;2023-04-06T00:41:05;96793.06;;;3.28;40.14
10992;BME280;5549;47.028;15.514;2023-04-06T00:43:32;96791.22;;;3.30;39.82
10992;BME280;5549;47.028;15.514;2023-04-06T00:46:00;96790.47;;;3.28;39.70
10992;BME280;5549;47.028;15.514;2023-04-06T00:48:28;96793.56;;;3.35;39.87
10992;BME280;5549;47.028;15.514;2023-04-06T00:50:58;96793.56;;;3.35;39.40
10992;BME280;5549;47.028;15.514;2023-04-06T00:53:26;96789.22;;;3.35;39.20
10992;BME280;5549;47.028;15.514;2023-04-06T00:55:53;96790.06;;;3.36;39.48
10992;BME280;5549;47.028;15.514;2023-04-06T00:58:24;96785.88;;;3.33;39.51
10992;BME280;5549;47.028;15.514;2023-04-06T01:00:52;96786.78;;;3.32;39.25
10992;BME280;5549;47.028;15.514;2023-04-06T01:03:22;96790.13;;;3.34;39.95
10992;BME280;5549;47.028;15.514;2023-04-06T01:05:51;96790.22;;;3.33;39.51
10992;BME280;5549;47.028;15.514;2023-04-06T01:08:49;96788.69;;;3.29;40.01
10992;BME280;5549;47.028;15.514;2023-04-06T01:11:40;96788.94;;;3.24;40.05
10992;BME280;5549;47.028;15.514;2023-04-06T01:14:30;96782.16;;;3.21;39.98
10992;BME280;5549;47.028;15.514;2023-04-06T01:17:20;96783.97;;;3.19;39.98
10992;BME280;5549;47.028;15.514;2023-04-06T01:20:12;96783.22;;;3.17;40.13
10992;BME280;5549;47.028;15.514;2023-04-06T01:23:01;96779.09;;;3.13;40.13
10992;BME280;5549;47.028;15.514;2023-04-06T01:25:53;96778.56;;;3.07;40.60
10992;BME280;5549;47.028;15.514;2023-04-06T01:28:45;96785.53;;;3.06;40.51
10992;BME280;5549;47.028;15.514;2023-04-06T01:31:32;96777.06;;;3.03;40.71
10992;BME280;5549;47.028;15.514;2023-04-06T01:34:01;96779.72;;;3.01;40.66
10992;BME280;5549;47.028;15.514;2023-04-06T01:36:28;96779.66;;;3.03;40.29
10992;BME280;5549;47.028;15.514;2023-04-06T01:39:00;96777.81;;;3.05;40.39
10992;BME280;5549;47.028;15.514;2023-04-06T01:41:30;96769.88;;;3.08;39.89
10992;BME280;5549;47.028;15.514;2023-04-06T01:44:01;96773.22;;;3.10;39.86
10992;BME280;5549;47.028;15.514;2023-04-06T01:46:28;96769.72;;;3.11;40.17
10992;BME280;5549;47.028;15.514;2023-04-06T01:48:56;96775.66;;;3.13;40.36
10992;BME280;5549;47.028;15.514;2023-04-06T01:51:26;96773.06;;;3.13;40.86
10992;BME280;5549;47.028;15.514;2023-04-06T01:53:54;96773.16;;;3.11;40.63
10992;BME280;5549;47.028;15.514;2023-04-06T01:56:24;96771.41;;;3.12;40.85
10992;BME280;5549;47.028;15.514;2023-04-06T01:58:52;96769.72;;;3.11;41.02
10992;BME280;5549;47.028;15.514;2023-04-06T02:01:19;96766.59;;;3.04;41.18
10992;BME280;5549;47.028;15.514;2023-04-06T02:03:48;96772.94;;;2.81;41.29
10992;BME280;5549;47.028;15.514;2023-04-06T02:06:18;96774.78;;;2.62;41.91
10992;BME280;5549;47.028;15.514;2023-04-06T02:08:48;96772.94;;;2.64;41.33
10992;BME280;5549;47.028;15.514;2023-04-06T02:11:17;96762.50;;;2.66;41.61
10992;BME280;5549;47.028;15.514;2023-04-06T02:13:47;96767.59;;;2.67;41.12
10992;BME280;5549;47.028;15.514;2023-04-06T02:16:14;96761.50;;;2.68;41.29
10992;BME280;5549;47.028;15.514;2023-04-06T02:18:45;96762.50;;;2.66;41.59
10992;BME280;5549;47.028;15.514;2023-04-06T02:21:12;96757.31;;;2.66;41.02
10992;BME280;5549;47.028;15.514;2023-04-06T02:23:44;96763.19;;;2.69;41.53
10992;BME280;5549;47.028;15.514;2023-04-06T02:26:13;96768.28;;;2.71;41.36
10992;BME280;5549;47.028;15.514;2023-04-06T02:28:40;96762.19;;;2.72;41.41
10992;BME280;5549;47.028;15.514;2023-04-06T02:31:12;96756.16;;;2.71;41.99
10992;BME280;5549;47.028;15.514;2023-04-06T02:33:43;96763.94;;;2.71;41.95
10992;BME280;5549;47.028;15.514;2023-04-06T02:36:11;96760.44;;;2.72;41.77
10992;BME280;5549;47.028;15.514;2023-04-06T02:38:38;96764.88;;;2.70;42.57
10992;BME280;5549;47.028;15.514;2023-04-06T02:41:06;96759.97;;;2.64;42.33
10992;BME280;5549;47.028;15.514;2023-04-06T02:43:35;96764.25;;;2.65;42.19
10992;BME280;5549;47.028;15.514;2023-04-06T02:46:05;96755.78;;;2.62;42.52
10992;BME280;5549;47.028;15.514;2023-04-06T02:48:34;96757.69;;;2.58;42.63
10992;BME280;5549;47.028;15.514;2023-04-06T02:51:03;96754.25;;;2.57;42.35
10992;BME280;5549;47.028;15.514;2023-04-06T02:53:31;96750.06;;;2.55;42.41
10992;BME280;5549;47.028;15.514;2023-04-06T02:55:58;96750.22;;;2.52;42.33
10992;BME280;5549;47.028;15.514;2023-04-06T02:58:26;96752.97;;;2.49;42.36
10992;BME280;5549;47.028;15.514;2023-04-06T03:00:56;96751.50;;;2.43;42.72
10992;BME280;5549;47.028;15.514;2023-04-06T03:03:24;96748.16;;;2.41;42.09
10992;BME280;5549;47.028;15.514;2023-04-06T03:05:53;96752.09;;;2.31;43.29
10992;BME280;5549;47.028;15.514;2023-04-06T03:08:22;96750.50;;;2.29;42.63
10992;BME280;5549;47.028;15.514;2023-04-06T03:10:50;96751.56;;;2.24;42.79
10992;BME280;5549;47.028;15.514;2023-04-06T03:13:20;96750.03;;;2.20;42.63
10992;BME280;5549;47.028;15.514;2023-04-06T03:15:49;96761.28;;;2.19;42.90
10992;BME280;5549;47.028;15.514;2023-04-06T03:18:21;96760.53;;;2.17;43.24
10992;BME280;5549;47.028;15.514;2023-04-06T03:20:49;96751.00;;;2.18;42.73
10992;BME280;5549;47.028;15.514;2023-04-06T03:23:18;96750.03;;;2.20;42.78
10992;BME280;5549;47.028;15.514;2023-04-06T03:25:47;96749.63;;;2.11;42.91
10992;BME280;5549;47.028;15.514;2023-04-06T03:28:16;96752.97;;;2.13;42.96
10992;BME280;5549;47.028;15.514;2023-04-06T03:30:46;96757.47;;;2.09;43.73
10992;BME280;5549;47.028;15.514;2023-04-06T03:33:14;96762.66;;;2.09;42.68
10992;BME280;5549;47.028;15.514;2023-04-06T03:35:41;96757.47;;;2.09;42.80
10992;BME280;5549;47.028;15.514;2023-04-06T03:38:11;96757.47;;;2.09;42.67
10992;BME280;5549;47.028;15.514;2023-04-06T03:40:40;96760.81;;;2.11;42.96
10992;BME280;5549;47.028;15.514;2023-04-06T03:43:11;96757.47;;;2.09;42.96
10992;BME280;5549;47.028;15.514;2023-04-06T03:45:41;96758.66;;;2.02;42.74
10992;BME280;5549;47.028;15.514;2023-04-06T03:48:09;96767.34;;;2.01;42.67
10992;BME280;5549;47.028;15.514;2023-04-06T03:50:36;96768.13;;;2.03;43.20
10992;BME280;5549;47.028;15.514;2023-04-06T03:53:04;96772.47;;;2.03;42.72
10992;BME280;5549;47.028;15.514;2023-04-06T03:55:32;96762.94;;;2.03;42.58
10992;BME280;5549;47.028;15.514;2023-04-06T03:58:03;96765.47;;;2.05;43.03
10992;BME280;5549;47.028;15.514;2023-04-06T04:00:30;96769.78;;;2.04;43.72
10992;BME280;5549;47.028;15.514;2023-04-06T04:02:59;96768.97;;;2.04;43.52
10992;BME280;5549;47.028;15.514;2023-04-06T04:05:30;96770.72;;;2.03;43.02
10992;BME280;5549;47.028;15.514;2023-04-06T04:07:58;96772.47;;;2.03;43.37
10992;BME280;5549;47.028;15.514;2023-04-06T04:10:25;96776.03;;;2.00;43.19
10992;BME280;5549;47.028;15.514;2023-04-06T04:12:53;96770.09;;;1.98;43.22
10992;BME280;5549;47.028;15.514;2023-04-06T04:15:22;96771.13;;;1.94;43.71
10992;BME280;5549;47.028;15.514;2023-04-06T04:17:50;96768.69;;;1.91;43.26
10992;BME280;5549;47.028;15.514;2023-04-06T04:20:20;96773.09;;;1.89;43.76
10992;BME280;5549;47.028;15.514;2023-04-06T04:22:50;96773.25;;;1.86;43.76
10992;BME280;5549;47.028;15.514;2023-04-06T04:25:17;96790.53;;;1.85;43.30
10992;BME280;5549;47.028;15.514;2023-04-06T04:27:45;96784.50;;;1.85;43.60
10992;BME280;5549;47.028;15.514;2023-04-06T04:30:13;96779.34;;;1.85;42.91
10992;BME280;5549;47.028;15.514;2023-04-06T04:32:42;96789.63;;;1.86;42.66
10992;BME280;5549;47.028;15.514;2023-04-06T04:35:10;96785.28;;;1.87;43.27
10992;BME280;5549;47.028;15.514;2023-04-06T04:37:41;96791.38;;;1.86;43.39
10992;BME280;5549;47.028;15.514;2023-04-06T04:40:10;96792.13;;;1.88;43.31
10992;BME280;5549;47.028;15.514;2023-04-06T04:42:39;96786.06;;;1.89;43.23
10992;BME280;5549;47.028;15.514;2023-04-06T04:45:10;96796.41;;;1.89;43.03
10992;BME280;5549;47.028;15.514;2023-04-06T04:47:41;96792.91;;;1.90;43.07
10992;BME280;5549;47.028;15.514;2023-04-06T04:50:10;96796.41;;;1.89;43.70
10992;BME280;5549;47.028;15.514;2023-04-06T04:52:40;96794.44;;;1.94;43.80
10992;BME280;5549;47.028;15.514;2023-04-06T04:55:08;96794.44;;;1.94;44.19
10992;BME280;5549;47.028;15.514;2023-04-06T04:57:38;96792.69;;;1.95;43.77
10992;BME280;5549;47.028;15.514;2023-04-06T05:00:09;96791.84;;;1.94;43.41
10992;BME280;5549;47.028;15.514;2023-04-06T05:02:37;96789.97;;;1.98;43.96
10992;BME280;5549;47.028;15.514;2023-04-06T05:05:08;96792.47;;;1.99;43.57
10992;BME280;5549;47.028;15.514;2023-04-06T05:07:35;96789.81;;;2.01;43.42
10992;BME280;5549;47.028;15.514;2023-04-06T05:10:04;96790.53;;;2.04;43.96
10992;BME280;5549;47.028;15.514;2023-04-06T05:12:32;96793.19;;;2.03;43.56
10992;BME280;5549;47.028;15.514;2023-04-06T05:15:00;96783.81;;;2.00;43.42
10992;BME280;5549;47.028;15.514;2023-04-06T05:17:29;96788.69;;;2.06;43.99
10992;BME280;5549;47.028;15.514;2023-04-06T05:19:57;96781.22;;;2.00;43.75
10992;BME280;5549;47.028;15.514;2023-04-06T05:22:26;96788.84;;;2.03;43.86
10992;BME280;5549;47.028;15.514;2023-04-06T05:24:54;96781.97;;;2.02;44.24
10992;BME280;5549;47.028;15.514;2023-04-06T05:27:21;96779.88;;;1.91;44.23
10992;BME280;5549;47.028;15.514;2023-04-06T05:29:49;96788.16;;;1.81;46.38
10992;BME280;5549;47.028;15.514;2023-04-06T05:32:20;96790.94;;;1.95;46.09
10992;BME280;5549;47.028;15.514;2023-04-06T05:34:50;96787.00;;;2.05;45.39
10992;BME280;5549;47.028;15.514;2023-04-06T05:37:18;96778.13;;;2.11;45.51
10992;BME280;5549;47.028;15.514;2023-04-06T05:39:47;96778.59;;;2.19;45.07
10992;BME280;5549;47.028;15.514;2023-04-06T05:42:16;96781.56;;;2.11;45.22
10992;BME280;5549;47.028;15.514;2023-04-06T05:44:43;96777.00;;;2.16;44.65
10992;BME280;5549;47.028;15.514;2023-04-06T05:47:11;96770.47;;;2.27;44.09
10992;BME280;5549;47.028;15.514;2023-04-06T05:49:39;96776.88;;;2.37;43.92
10992;BME280;5549;47.028;15.514;2023-04-06T05:52:08;96785.28;;;2.42;43.92
10992;BME280;5549;47.028;15.514;2023-04-06T05:54:36;96781.31;;;2.52;43.99
10992;BME280;5549;47.028;15.514;2023-04-06T05:57:06;96776.34;;;2.47;44.58
10992;BME280;5549;47.028;15.514;2023-04-06T05:59:33;96778.19;;;2.63;44.23
10992;BME280;5549;47.028;15.514;2023-04-06T06:02:04;96792.25;;;2.93;53.03
10992;BME280;5549;47.028;15.514;2023-04-06T06:04:34;96777.75;;;3.57;61.58
10992;BME280;5549;47.028;15.514;2023-04-06T06:07:02;96784.31;;;4.27;59.96
10992;BME280;5549;47.028;15.514;2023-04-06T06:09:29;96776.22;;;4.93;55.28
10992;BME280;5549;47.028;15.514;2023-04-06T06:11:57;96780.06;;;5.60;52.39
10992;BME280;5549;47.028;15.514;2023-04-06T06:14:26;96772.75;;;6.22;49.71
10992;BME280;5549;47.028;15.514;2023-04-06T06:16:57;96767.31;;;6.79;47.62
10992;BME280;5549;47.028;15.514;2023-04-06T06:19:25;96764.19;;;7.26;45.41
10992;BME280;5549;47.028;15.514;2023-04-06T06:21:55;96750.47;;;7.73;45.26
10992;BME280;5549;47.028;15.514;2023-04-06T06:24:22;96752.66;;;8.16;42.84
10992;BME280;5549;47.028;15.514;2023-04-06T06:26:50;96756.72;;;8.56;42.72
10992;BME280;5549;47.028;15.514;2023-04-06T06:29:18;96748.22;;;8.89;42.01
10992;BME280;5549;47.028;15.514;2023-04-06T06:31:47;96744.63;;;9.25;40.83
10992;BME280;5549;47.028;15.514;2023-04-06T06:34:16;96748.00;;;9.61;39.94
10992;BME280;5549;47.028;15.514;2023-04-06T06:36:46;96737.75;;;9.91;38.80
10992;BME280;5549;47.028;15.514;2023-04-06T06:39:14;96745.13;;;10.09;36.97
10992;BME280;5549;47.028;15.514;2023-04-06T06:41:42;96740.56;;;10.44;36.98
10992;BME280;5549;47.028;15.514;2023-04-06T06:44:09;96733.56;;;10.66;36.51
10992;BME280;5549;47.028;15.514;2023-04-06T06:46:37;96733.56;;;10.98;34.91
10992;BME280;5549;47.028;15.514;2023-04-06T06:49:06;96738.50;;;11.33;34.80
10992;BME280;5549;47.028;15.514;2023-04-06T06:51:34;96738.03;;;11.48;33.30
10992;BME280;5549;47.028;15.514;2023-04-06T06:54:01;96735.75;;;11.65;32.13
10992;BME280;5549;47.028;15.514;2023-04-06T06:56:29;96734.13;;;11.94;33.02
10992;BME280;5549;47.028;15.514;2023-04-06T06:58:59;96728.22;;;12.11;32.49
10992;BME280;5549;47.028;15.514;2023-04-06T07:01:31;96728.63;;;12.07;30.82
10992;BME280;5549;47.028;15.514;2023-04-06T07:03:59;96735.94;;;12.34;30.89
10992;BME280;5549;47.028;15.514;2023-04-06T07:06:28;96732.63;;;12.61;32.17
10992;BME280;5549;47.028;15.514;2023-04-06T07:08:56;96730.72;;;12.82;31.42
10992;BME280;5549;47.028;15.514;2023-04-06T07:11:24;96725.00;;;13.06;31.12
10992;BME280;5549;47.028;15.514;2023-04-06T07:13:54;96722.66;;;13.12;30.36
10992;BME280;5549;47.028;15.514;2023-04-06T07:16:22;96728.06;;;12.53;30.11
10992;BME280;5549;47.028;15.514;2023-04-06T07:18:52;96727.50;;;12.69;30.06
10992;BME280;5549;47.028;15.514;2023-04-06T07:21:22;96730.72;;;12.82;29.90
10992;BME280;5549;47.028;15.514;2023-04-06T07:23:51;96734.31;;;12.62;30.10
10992;BME280;5549;47.028;15.514;2023-04-06T07:26:20;96736.81;;;12.13;28.36
10992;BME280;5549;47.028;15.514;2023-04-06T07:28:50;96744.75;;;10.13;30.30
10992;BME280;5549;47.028;15.514;2023-04-06T07:31:18;96743.78;;;10.37;29.06
10992;BME280;5549;47.028;15.514;2023-04-06T07:33:46;96737.72;;;10.14;30.28
10992;BME280;5549;47.028;15.514;2023-04-06T07:36:16;96740.72;;;9.87;30.81
10992;BME280;5549;47.028;15.514;2023-04-06T07:38:44;96744.31;;;9.75;31.66
10992;BME280;5549;47.028;15.514;2023-04-06T07:41:16;96748.34;;;9.79;31.88
10992;BME280;5549;47.028;15.514;2023-04-06T07:43:43;96744.66;;;9.59;32.13
10992;BME280;5549;47.028;15.514;2023-04-06T07:46:12;96747.03;;;9.62;31.90
10992;BME280;5549;47.028;15.514;2023-04-06T07:48:39;96736.53;;;9.51;31.12
10992;BME280;5549;47.028;15.514;2023-04-06T07:51:07;96739.78;;;8.97;33.19
10992;BME280;5549;47.028;15.514;2023-04-06T07:53:40;96736.53;;;9.28;32.33
10992;BME280;5549;47.028;15.514;2023-04-06T07:56:10;96737.03;;;9.56;32.56
10992;BME280;5549;47.028;15.514;2023-04-06T07:58:42;96733.69;;;9.76;31.62
10992;BME280;5549;47.028;15.514;2023-04-06T08:01:09;96726.28;;;10.04;31.41
10992;BME280;5549;47.028;15.514;2023-04-06T08:03:37;96723.50;;;10.39;32.08
10992;BME280;5549;47.028;15.514;2023-04-06T08:06:06;96724.03;;;10.65;31.27
10992;BME280;5549;47.028;15.514;2023-04-06T08:08:35;96722.44;;;10.41;29.76
10992;BME280;5549;47.028;15.514;2023-04-06T08:11:03;96711.81;;;10.75;30.65
10992;BME280;5549;47.028;15.514;2023-04-06T08:13:34;96712.59;;;11.07;31.17
10992;BME280;5549;47.028;15.514;2023-04-06T08:16:04;96707.31;;;11.49;30.35
10992;BME280;5549;47.028;15.514;2023-04-06T08:18:34;96706.66;;;11.87;30.71
10992;BME280;5549;47.028;15.514;2023-04-06T08:21:01;96697.50;;;12.22;30.33
10992;BME280;5549;47.028;15.514;2023-04-06T08:23:30;96702.66;;;12.33;29.10
10992;BME280;5549;47.028;15.514;2023-04-06T08:25:58;96705.72;;;12.38;28.36
10992;BME280;5549;47.028;15.514;2023-04-06T08:28:25;96692.16;;;12.62;28.44
10992;BME280;5549;47.028;15.514;2023-04-06T08:30:55;96686.75;;;12.82;27.77
10992;BME280;5549;47.028;15.514;2023-04-06T08:33:24;96689.78;;;12.59;28.36
10992;BME280;5549;47.028;15.514;2023-04-06T08:35:52;96684.09;;;12.92;28.58
10992;BME280;5549;47.028;15.514;2023-04-06T08:38:19;96691.44;;;12.89;26.70
10992;BME280;5549;47.028;15.514;2023-04-06T08:40:47;96682.72;;;12.49;27.02
10992;BME280;5549;47.028;15.514;2023-04-06T08:43:17;96680.06;;;12.40;26.10
10992;BME280;5549;47.028;15.514;2023-04-06T08:45:50;96679.94;;;12.99;28.81
10992;BME280;5549;47.028;15.514;2023-04-06T08:48:21;96670.06;;;13.01;26.92
10992;BME280;5549;47.028;15.514;2023-04-06T08:50:51;96677.59;;;12.38;25.40
10992;BME280;5549;47.028;15.514;2023-04-06T08:53:20;96668.28;;;12.73;26.32
10992;BME280;5549;47.028;15.514;2023-04-06T08:55:48;96663.31;;;12.50;27.13
10992;BME280;5549;47.028;15.514;2023-04-06T08:58:17;96663.00;;;12.92;28.34
10992;BME280;5549;47.028;15.514;2023-04-06T09:00:45;96656.13;;;13.38;27.64
10992;BME280;5549;47.028;15.514;2023-04-06T09:03:13;96652.63;;;12.62;25.54
10992;BME280;5549;47.028;15.514;2023-04-06T09:05:41;96649.72;;;12.65;25.94
10992;BME280;5549;47.028;15.514;2023-04-06T09:08:12;96640.78;;;13.24;29.05
10992;BME280;5549;47.028;15.514;2023-04-06T09:10:41;96637.16;;;13.62;25.92
10992;BME280;5549;47.028;15.514;2023-04-06T09:13:09;96644.59;;;12.73;25.73
10992;BME280;5549;47.028;15.514;2023-04-06T09:15:37;96628.59;;;12.94;26.37
10992;BME280;5549;47.028;15.514;2023-04-06T09:18:08;96631.66;;;12.99;27.72
10992;BME280;5549;47.028;15.514;2023-04-06T09:20:38;96632.47;;;12.99;26.08
10992;BME280;5549;47.028;15.514;2023-04-06T09:23:06;96622.16;;;13.25;24.53
10992;BME280;5549;47.028;15.514;2023-04-06T09:25:37;96626.31;;;13.28;27.33
10992;BME280;5549;47.028;15.514;2023-04-06T09:28:07;96613.53;;;13.33;25.25
10992;BME280;5549;47.028;15.514;2023-04-06T09:30:35;96616.81;;;13.44;24.91
10992;BME280;5549;47.028;15.514;2023-04-06T09:33:04;96614.25;;;13.62;25.41
10992;BME280;5549;47.028;15.514;2023-04-06T09:35:35;96604.41;;;13.82;24.43
10992;BME280;5549;47.028;15.514;2023-04-06T09:38:11;96604.03;;;13.49;24.49
10992;BME280;5549;47.028;15.514;2023-04-06T09:40:50;96599.72;;;13.76;24.55
10992;BME280;5549;47.028;15.514;2023-04-06T09:43:26;96598.59;;;14.06;25.07
10992;BME280;5549;47.028;15.514;2023-04-06T09:45:56;96593.16;;;14.25;23.91
10992;BME280;5549;47.028;15.514;2023-04-06T09:48:27;96599.47;;;13.69;24.07
10992;BME280;5549;47.028;15.514;2023-04-06T09:51:02;96596.31;;;13.93;24.52
10992;BME280;5549;47.028;15.514;2023-04-06T09:53:32;96597.53;;;13.99;24.50
10992;BME280;5549;47.028;15.514;2023-04-06T09:56:12;96588.34;;;14.03;24.37
10992;BME280;5549;47.028;15.514;2023-04-06T09:58:48;96587.44;;;13.30;22.08
10992;BME280;5549;47.028;15.514;2023-04-06T10:01:20;96577.56;;;14.14;24.94
10992;BME280;5549;47.028;15.514;2023-04-06T10:03:56;96577.56;;;14.14;24.75
10992;BME280;5549;47.028;15.514;2023-04-06T10:06:28;96575.13;;;14.38;23.27
10992;BME280;5549;47.028;15.514;2023-04-06T10:08:59;96575.59;;;14.16;22.24
10992;BME280;5549;47.028;15.514;2023-04-06T10:11:32;96577.09;;;14.01;23.35
10992;BME280;5549;47.028;15.514;2023-04-06T10:14:01;96573.19;;;13.77;22.15
10992;BME280;5549;47.028;15.514;2023-04-06T10:16:29;96567.00;;;13.87;21.39
10992;BME280;5549;47.028;15.514;2023-04-06T10:19:04;96559.38;;;14.11;23.92
10992;BME280;5549;47.028;15.514;2023-04-06T10:21:35;96564.88;;;14.35;23.54
10992;BME280;5549;47.028;15.514;2023-04-06T10:24:09;96553.53;;;14.61;23.42
10992;BME280;5549;47.028;15.514;2023-04-06T10:26:39;96546.03;;;15.00;24.25
10992;BME280;5549;47.028;15.514;2023-04-06T10:29:07;96542.13;;;15.12;23.97
10992;BME280;5549;47.028;15.514;2023-04-06T10:31:42;96535.88;;;14.61;21.56
10992;BME280;5549;47.028;15.514;2023-04-06T10:34:10;96538.47;;;15.05;22.69
10992;BME280;5549;47.028;15.514;2023-04-06T10:36:40;96532.56;;;14.59;20.98
10992;BME280;5549;47.028;15.514;2023-04-06T10:39:09;96537.38;;;14.90;23.51
10992;BME280;5549;47.028;15.514;2023-04-06T10:41:43;96522.97;;;14.84;22.44
10992;BME280;5549;47.028;15.514;2023-04-06T10:44:19;96533.44;;;14.68;23.10
10992;BME280;5549;47.028;15.514;2023-04-06T10:46:53;96518.72;;;14.91;22.70
10992;BME280;5549;47.028;15.514;2023-04-06T10:49:25;96523.31;;;14.89;21.97
10992;BME280;5549;47.028;15.514;2023-04-06T10:51:54;96521.66;;;14.88;24.61
10992;BME280;5549;47.028;15.514;2023-04-06T10:54:23;96519.94;;;15.05;22.17
10992;BME280;5549;47.028;15.514;2023-04-06T10:56:55;96517.03;;;15.16;23.95
10992;BME280;5549;47.028;15.514;2023-04-06T10:59:25;96526.56;;;15.09;23.52
10992;BME280;5549;47.028;15.514;2023-04-06T11:01:58;96515.38;;;15.15;21.18
10992;BME280;5549;47.028;15.514;2023-04-06T11:04:28;96513.41;;;15.59;21.60
10992;BME280;5549;47.028;15.514;2023-04-06T11:06:58;96513.34;;;15.85;22.93
10992;BME280;5549;47.028;15.514;2023-04-06T11:09:27;96512.00;;;15.39;21.34
10992;BME280;5549;47.028;15.514;2023-04-06T11:11:57;96498.44;;;15.76;21.01
10992;BME280;5549;47.028;15.514;2023-04-06T11:14:26;96505.25;;;16.03;21.94
10992;BME280;5549;47.028;15.514;2023-04-06T11:16:56;96493.84;;;16.67;22.10
10992;BME280;5549;47.028;15.514;2023-04-06T11:19:26;96493.84;;;16.35;19.65
10992;BME280;5549;47.028;15.514;2023-04-06T11:21:54;96479.94;;;16.41;19.62
10992;BME280;5549;47.028;15.514;2023-04-06T11:24:23;96479.59;;;16.28;21.58
10992;BME280;5549;47.028;15.514;2023-04-06T11:26:57;96475.13;;;16.12;21.52
10992;BME280;5549;47.028;15.514;2023-04-06T11:29:29;96473.81;;;16.24;20.69
10992;BME280;5549;47.028;15.514;2023-04-06T11:32:01;96473.47;;;16.19;21.62
10992;BME280;5549;47.028;15.514;2023-04-06T11:34:30;96481.09;;;16.14;21.11
10992;BME280;5549;47.028;15.514;2023-04-06T11:37:02;96466.69;;;16.33;19.57
10992;BME280;5549;47.028;15.514;2023-04-06T11:39:32;96463.84;;;16.59;21.14
10992;BME280;5549;47.028;15.514;2023-04-06T11:42:05;96458.03;;;16.72;19.70
10992;BME280;5549;47.028;15.514;2023-04-06T11:44:35;96456.56;;;16.45;18.97
10992;BME280;5549;47.028;15.514;2023-04-06T11:47:10;96457.56;;;16.35;22.64
10992;BME280;5549;47.028;15.514;2023-04-06T11:49:42;96463.72;;;16.12;20.89
10992;BME280;5549;47.028;15.514;2023-04-06T11:52:18;96464.19;;;15.91;20.86
10992;BME280;5549;47.028;15.514;2023-04-06T11:54:47;96455.59;;;16.21;21.09
10992;BME280;5549;47.028;15.514;2023-04-06T11:57:21;96445.97;;;16.45;20.15
10992;BME280;5549;47.028;15.514;2023-04-06T11:59:53;96444.28;;;16.60;20.45
10992;BME280;5549;47.028;15.514;2023-04-06T12:02:20;96438.00;;;16.53;20.66
10992;BME280;5549;47.028;15.514;2023-04-06T12:04:48;96437.78;;;16.87;19.98
10992;BME280;5549;47.028;15.514;2023-04-06T12:07:18;96444.31;;;16.27;19.77
10992;BME280;5549;47.028;15.514;2023-04-06T12:09:48;96439.03;;;16.27;19.80
10992;BME280;5549;47.028;15.514;2023-04-06T12:12:42;96432.25;;;16.17;20.42
10992;BME280;5549;47.028;15.514;2023-04-06T12:15:34;96436.22;;;16.13;20.04
10992;BME280;5549;47.028;15.514;2023-04-06T12:18:05;96428.88;;;16.47;19.44
10992;BME280;5549;47.028;15.514;2023-04-06T12:20:34;96422.44;;;16.42;20.51
10992;BME280;5549;47.028;15.514;2023-04-06T12:23:26;96430.41;;;15.77;19.52
10992;BME280;5549;47.028;15.514;2023-04-06T12:26:18;96427.78;;;16.17;20.48
10992;BME280;5549;47.028;15.514;2023-04-06T12:28:50;96415.31;;;16.50;20.58
10992;BME280;5549;47.028;15.514;2023-04-06T12:31:42;96419.94;;;16.48;19.90
10992;BME280;5549;47.028;15.514;2023-04-06T12:34:18;96409.47;;;16.63;19.68
10992;BME280;5549;47.028;15.514;2023-04-06T12:36:45;96412.16;;;16.47;22.35
10992;BME280;5549;47.028;15.514;2023-04-06T12:39:13;96408.91;;;15.96;20.36
10992;BME280;5549;47.028;15.514;2023-04-06T12:41:42;96415.03;;;15.72;20.85
10992;BME280;5549;47.028;15.514;2023-04-06T12:44:10;96406.72;;;16.32;21.39
10992;BME280;5549;47.028;15.514;2023-04-06T12:46:42;96398.88;;;16.55;19.39
10992;BME280;5549;47.028;15.514;2023-04-06T12:49:09;96398.94;;;16.30;19.21
10992;BME280;5549;47.028;15.514;2023-04-06T12:51:37;96394.66;;;16.13;18.17
10992;BME280;5549;47.028;15.514;2023-04-06T12:54:05;96393.25;;;16.58;19.18
10992;BME280;5549;47.028;15.514;2023-04-06T12:56:33;96388.28;;;16.55;18.11
10992;BME280;5549;47.028;15.514;2023-04-06T12:59:01;96387.59;;;16.69;20.74
10992;BME280;5549;47.028;15.514;2023-04-06T13:01:30;96388.94;;;16.65;19.18
10992;BME280;5549;47.028;15.514;2023-04-06T13:04:01;96391.72;;;16.80;20.21
10992;BME280;5549;47.028;15.514;2023-04-06T13:06:31;96386.34;;;16.96;19.84
10992;BME280;5549;47.028;15.514;2023-04-06T13:09:01;96385.00;;;16.36;18.53
10992;BME280;5549;47.028;15.514;2023-04-06T13:11:30;96386.84;;;16.28;18.48
10992;BME280;5549;47.028;15.514;2023-04-06T13:14:00;96387.22;;;16.09;19.58
10992;BME280;5549;47.028;15.514;2023-04-06T13:16:32;96380.59;;;16.13;19.16
10992;BME280;5549;47.028;15.514;2023-04-06T13:18:59;96386.41;;;16.00;19.34
10992;BME280;5549;47.028;15.514;2023-04-06T13:21:27;96385.75;;;15.82;18.46